createdAt,value
2019-04-29T00:00:58.515Z,4.13
2019-04-29T00:03:28.880Z,4.03
2019-04-29T00:05:58.167Z,4.77
2019-04-29T00:08:27.252Z,4.63
2019-04-29T00:10:56.332Z,4.50
2019-04-29T00:13:25.819Z,4.53
2019-04-29T00:16:29.511Z,4.63
2019-04-29T00:19:20.943Z,5.20
2019-04-29T00:21:50.190Z,4.50
2019-04-29T00:24:19.279Z,6.80
2019-04-29T00:26:48.455Z,9.00
2019-04-29T00:29:17.549Z,6.70
2019-04-29T00:31:46.640Z,6.10
2019-04-29T00:34:15.939Z,6.17
2019-04-29T00:36:52.183Z,5.07
2019-04-29T00:39:39.153Z,5.07
2019-04-29T00:42:36.295Z,4.60
2019-04-29T00:45:05.904Z,5.13
2019-04-29T00:47:34.985Z,5.70
2019-04-29T00:50:04.299Z,4.83
2019-04-29T00:52:33.503Z,5.53
2019-04-29T00:55:08.436Z,4.97
2019-04-29T00:57:37.556Z,5.23
2019-04-29T01:00:08.166Z,4.37
2019-04-29T01:02:38.962Z,5.07
2019-04-29T01:05:08.106Z,5.00
2019-04-29T01:07:38.279Z,5.30
2019-04-29T01:10:07.643Z,5.07
2019-04-29T01:12:37.212Z,5.17
2019-04-29T01:15:06.488Z,5.07
2019-04-29T01:17:36.539Z,5.20
2019-04-29T01:20:05.735Z,4.77
2019-04-29T01:22:34.821Z,5.30
2019-04-29T01:25:04.195Z,5.80
2019-04-29T01:27:39.051Z,4.97
2019-04-29T01:30:09.659Z,4.87
2019-04-29T01:32:38.758Z,5.40
2019-04-29T01:35:07.834Z,5.20
2019-04-29T01:37:39.056Z,5.27
2019-04-29T01:40:18.519Z,4.37
2019-04-29T01:42:47.618Z,4.60
2019-04-29T01:45:16.715Z,4.93
2019-04-29T01:47:45.799Z,5.17
2019-04-29T01:50:15.174Z,5.33
2019-04-29T01:52:45.331Z,5.43
2019-04-29T01:55:14.628Z,5.50
2019-04-29T01:57:43.731Z,6.73
2019-04-29T02:00:12.891Z,6.50
2019-04-29T02:02:42.540Z,8.53
2019-04-29T02:05:11.736Z,8.20
2019-04-29T02:07:40.843Z,9.50
2019-04-29T02:10:29.344Z,9.57
2019-04-29T02:12:58.517Z,10.50
2019-04-29T02:15:27.720Z,11.63
2019-04-29T02:17:56.836Z,11.60
2019-04-29T02:20:25.979Z,11.77
2019-04-29T02:23:26.593Z,11.67
2019-04-29T02:25:55.700Z,11.87
2019-04-29T02:28:24.801Z,12.83
2019-04-29T02:30:55.384Z,12.20
2019-04-29T02:33:24.493Z,12.50
2019-04-29T02:35:53.600Z,13.43
2019-04-29T02:38:43.740Z,13.67
2019-04-29T02:41:30.881Z,14.53
2019-04-29T02:44:01.691Z,13.93
2019-04-29T02:46:30.862Z,13.90
2019-04-29T02:48:59.971Z,13.40
2019-04-29T02:51:47.332Z,13.20
2019-04-29T02:54:16.589Z,12.93
2019-04-29T02:56:48.873Z,13.53
2019-04-29T02:59:20.788Z,14.27
2019-04-29T03:02:09.223Z,13.30
2019-04-29T03:04:57.598Z,12.83
2019-04-29T03:07:26.778Z,13.97
2019-04-29T03:09:55.949Z,12.93
2019-04-29T03:12:25.081Z,12.90
2019-04-29T03:14:54.277Z,12.60
2019-04-29T03:17:23.547Z,13.30
2019-04-29T03:20:16.869Z,12.77
2019-04-29T03:22:47.044Z,12.53
2019-04-29T03:25:16.178Z,12.13
2019-04-29T03:27:45.291Z,12.30
2019-04-29T03:30:14.682Z,13.40
2019-04-29T03:32:43.795Z,11.93
2019-04-29T03:35:12.976Z,11.37
2019-04-29T03:37:42.170Z,11.50
2019-04-29T03:40:11.278Z,10.77
2019-04-29T03:42:40.379Z,11.60
2019-04-29T03:45:09.771Z,10.50
2019-04-29T03:47:39.190Z,10.07
2019-04-29T03:50:08.362Z,11.07
2019-04-29T03:52:37.605Z,10.93
2019-04-29T03:55:06.726Z,11.57
2019-04-29T03:57:37.206Z,10.90
2019-04-29T04:00:06.547Z,11.70
2019-04-29T04:02:51.289Z,11.70
2019-04-29T04:05:36.084Z,12.50
2019-04-29T04:08:11.374Z,12.00
2019-04-29T04:10:40.482Z,12.83
2019-04-29T04:13:09.572Z,13.50
2019-04-29T04:15:38.689Z,13.03
2019-04-29T04:18:14.021Z,13.50
2019-04-29T04:20:43.170Z,14.83
2019-04-29T04:23:12.286Z,14.13
2019-04-29T04:25:41.396Z,14.23
2019-04-29T04:28:10.521Z,14.00
2019-04-29T04:30:39.614Z,14.70
2019-04-29T04:33:08.712Z,13.80
2019-04-29T04:35:38.012Z,14.67
2019-04-29T04:38:07.193Z,15.30
2019-04-29T04:40:43.579Z,13.40
2019-04-29T04:43:12.708Z,12.50
2019-04-29T04:45:41.893Z,14.47
2019-04-29T04:48:11.009Z,14.27
2019-04-29T04:50:40.106Z,15.20
2019-04-29T04:53:09.249Z,15.30
2019-04-29T04:55:40.137Z,14.43
2019-04-29T04:58:09.260Z,15.43
2019-04-29T05:00:38.399Z,15.10
2019-04-29T05:03:07.497Z,15.70
2019-04-29T05:05:36.616Z,15.80
2019-04-29T05:08:05.713Z,14.70
2019-04-29T05:10:34.854Z,15.23
2019-04-29T05:13:03.944Z,15.47
2019-04-29T05:15:33.076Z,15.27
2019-04-29T05:18:02.200Z,15.23
2019-04-29T05:20:31.297Z,15.70
2019-04-29T05:23:00.488Z,16.17
2019-04-29T05:25:30.371Z,16.30
2019-04-29T05:27:59.633Z,14.90
2019-04-29T05:30:28.831Z,15.77
2019-04-29T05:32:57.963Z,14.83
2019-04-29T05:35:49.330Z,16.20
2019-04-29T05:38:31.204Z,18.00
2019-04-29T05:41:00.313Z,17.27
2019-04-29T05:43:44.808Z,17.40
2019-04-29T05:46:32.108Z,17.90
2019-04-29T05:49:02.362Z,16.77
2019-04-29T05:51:47.297Z,19.03
2019-04-29T05:54:17.466Z,18.80
2019-04-29T05:56:46.914Z,18.00
2019-04-29T05:59:16.066Z,16.60
2019-04-29T06:01:47.265Z,15.83
2019-04-29T06:04:17.848Z,17.10
2019-04-29T06:06:47.085Z,18.63
2019-04-29T06:09:17.020Z,18.00
2019-04-29T06:11:47.094Z,17.60
2019-04-29T06:14:16.280Z,18.23
2019-04-29T06:16:45.541Z,17.50
2019-04-29T06:19:14.648Z,19.27
2019-04-29T06:21:43.740Z,19.47
2019-04-29T06:24:12.849Z,20.30
2019-04-29T06:26:43.802Z,19.20
2019-04-29T06:29:13.065Z,18.40
2019-04-29T06:31:42.353Z,20.00
2019-04-29T06:34:11.462Z,17.77
2019-04-29T06:36:40.636Z,21.43
2019-04-29T06:39:09.769Z,19.60
2019-04-29T06:41:40.738Z,19.80
2019-04-29T06:44:16.055Z,21.67
2019-04-29T06:46:40.610Z,20.47
2019-04-29T06:49:10.798Z,21.20
2019-04-29T06:51:40.214Z,21.30
2019-04-29T06:54:09.351Z,23.20
2019-04-29T06:56:38.460Z,21.70
2019-04-29T06:59:11.933Z,20.90
2019-04-29T07:01:39.384Z,20.33
2019-04-29T07:04:08.634Z,20.97
2019-04-29T07:06:37.766Z,21.33
2019-04-29T07:09:07.048Z,21.03
2019-04-29T07:11:38.264Z,20.77
2019-04-29T07:14:07.427Z,21.67
2019-04-29T07:16:36.536Z,20.53
2019-04-29T07:19:05.651Z,20.00
2019-04-29T07:21:34.854Z,20.57
2019-04-29T07:24:04.224Z,20.80
2019-04-29T07:26:33.325Z,20.00
2019-04-29T07:29:02.735Z,19.97
2019-04-29T07:31:33.520Z,19.10
2019-04-29T07:34:02.680Z,17.90
2019-04-29T07:36:32.853Z,18.07
2019-04-29T07:39:01.979Z,18.43
2019-04-29T07:41:32.735Z,17.27
2019-04-29T07:44:01.984Z,19.07
2019-04-29T07:46:56.017Z,18.97
2019-04-29T07:49:17.440Z,16.80
2019-04-29T07:51:47.493Z,17.17
2019-04-29T07:54:17.716Z,17.43
2019-04-29T07:56:46.993Z,16.30
2019-04-29T07:59:16.093Z,16.20
2019-04-29T08:01:45.226Z,17.43
2019-04-29T08:04:14.536Z,16.93
2019-04-29T08:06:45.000Z,16.27
2019-04-29T08:09:14.185Z,16.53
2019-04-29T08:11:43.393Z,16.90
2019-04-29T08:14:12.485Z,15.13
2019-04-29T08:16:41.641Z,14.80
2019-04-29T08:19:10.768Z,14.30
2019-04-29T08:21:39.944Z,13.03
2019-04-29T08:24:11.694Z,12.60
2019-04-29T08:26:47.141Z,13.20
2019-04-29T08:29:11.050Z,12.03
2019-04-29T08:31:40.148Z,13.37
2019-04-29T08:34:10.263Z,13.40
2019-04-29T08:36:40.312Z,15.20
2019-04-29T08:39:09.529Z,12.73
2019-04-29T08:41:39.021Z,14.27
2019-04-29T08:44:26.259Z,12.40
2019-04-29T08:46:59.216Z,11.20
2019-04-29T08:49:28.347Z,12.67
2019-04-29T08:51:57.629Z,10.40
2019-04-29T08:54:26.793Z,11.47
2019-04-29T08:57:03.130Z,10.67
2019-04-29T08:59:26.753Z,12.90
2019-04-29T09:01:55.890Z,11.73
2019-04-29T09:04:28.471Z,9.70
2019-04-29T09:06:55.834Z,11.60
2019-04-29T09:11:55.746Z,12.20
2019-04-29T09:13:54.538Z,12.30
2019-04-29T09:14:24.863Z,14.93
2019-04-29T09:16:53.989Z,11.37
2019-04-29T09:19:23.158Z,13.20
2019-04-29T09:21:56.379Z,11.67
2019-04-29T09:24:25.897Z,10.90
2019-04-29T09:27:00.257Z,14.97
2019-04-29T09:29:33.708Z,12.93
2019-04-29T09:32:03.463Z,10.90
2019-04-29T09:34:32.581Z,11.30
2019-04-29T09:37:01.876Z,12.30
2019-04-29T09:39:42.878Z,11.30
2019-04-29T09:42:22.125Z,9.93
2019-04-29T09:45:02.040Z,9.33
2019-04-29T09:47:32.902Z,10.27
2019-04-29T09:50:02.005Z,8.93
2019-04-29T09:52:32.996Z,14.70
2019-04-29T09:55:04.014Z,9.80
2019-04-29T09:57:32.912Z,10.67
2019-04-29T10:00:07.948Z,9.70
2019-04-29T10:02:44.737Z,10.20
2019-04-29T10:05:36.047Z,10.50
2019-04-29T10:08:05.569Z,11.00
2019-04-29T10:10:37.309Z,11.60
2019-04-29T10:13:06.364Z,10.67
2019-04-29T10:15:55.952Z,18.93
2019-04-29T10:18:45.112Z,12.27
2019-04-29T10:21:16.440Z,12.70
2019-04-29T10:23:46.169Z,12.73
2019-04-29T10:26:15.276Z,15.90
2019-04-29T10:28:52.809Z,12.60
2019-04-29T10:31:22.836Z,14.00
2019-04-29T10:33:54.795Z,13.60
2019-04-29T10:36:26.178Z,13.50
2019-04-29T10:38:56.357Z,12.60
2019-04-29T10:41:40.387Z,14.20
2019-04-29T10:44:21.463Z,14.10
2019-04-29T10:47:12.096Z,15.60
2019-04-29T10:49:45.520Z,16.17
2019-04-29T10:52:14.652Z,15.90
2019-04-29T10:54:43.829Z,15.40
2019-04-29T10:57:14.812Z,16.17
2019-04-29T10:59:46.724Z,15.20
2019-04-29T11:02:35.161Z,15.60
2019-04-29T11:05:30.520Z,15.83
2019-04-29T11:08:15.988Z,16.63
2019-04-29T11:10:45.156Z,17.83
2019-04-29T11:13:14.469Z,16.70
2019-04-29T11:15:44.868Z,17.30
2019-04-29T11:18:18.145Z,17.20
2019-04-29T11:20:48.917Z,16.90
2019-04-29T11:23:22.704Z,17.87
2019-04-29T11:26:05.261Z,17.80
2019-04-29T11:28:35.039Z,19.40
2019-04-29T11:31:04.476Z,19.70
2019-04-29T11:33:43.130Z,17.53
2019-04-29T11:36:13.660Z,16.60
2019-04-29T11:38:43.460Z,18.67
2019-04-29T11:41:19.558Z,18.47
2019-04-29T11:43:46.593Z,18.33
2019-04-29T11:46:16.124Z,18.23
2019-04-29T11:48:45.826Z,22.57
2019-04-29T11:51:24.905Z,19.23
2019-04-29T11:53:54.845Z,17.37
2019-04-29T11:56:24.579Z,20.40
2019-04-29T11:59:21.763Z,19.07
2019-04-29T12:02:09.624Z,18.70
2019-04-29T12:04:43.402Z,19.40
2019-04-29T12:07:13.554Z,19.60
2019-04-29T12:09:43.184Z,22.10
2019-04-29T12:12:14.557Z,18.87
2019-04-29T12:15:13.749Z,20.37
2019-04-29T12:17:50.480Z,19.53
2019-04-29T12:20:31.308Z,18.53
2019-04-29T12:23:00.546Z,18.47
2019-04-29T12:25:30.156Z,20.30
2019-04-29T12:28:02.041Z,19.83
2019-04-29T12:30:36.411Z,19.80
2019-04-29T12:33:12.244Z,18.53
2019-04-29T12:35:58.696Z,19.53
2019-04-29T12:38:52.971Z,19.73
2019-04-29T12:41:48.679Z,20.13
2019-04-29T12:44:34.690Z,20.00
2019-04-29T12:47:03.682Z,19.17
2019-04-29T12:49:32.797Z,20.00
2019-04-29T12:52:02.091Z,20.27
2019-04-29T12:54:32.200Z,19.33
2019-04-29T12:57:01.439Z,21.10
2019-04-29T12:59:35.028Z,20.97
2019-04-29T13:02:35.684Z,20.20
2019-04-29T13:05:26.621Z,20.13
2019-04-29T13:08:15.432Z,19.30
2019-04-29T13:10:59.628Z,18.83
2019-04-29T13:13:28.782Z,19.23
2019-04-29T13:16:13.450Z,19.77
2019-04-29T13:19:19.963Z,18.77
2019-04-29T13:21:44.637Z,19.83
2019-04-29T13:24:22.826Z,19.30
2019-04-29T13:26:44.596Z,20.00
2019-04-29T13:29:26.292Z,20.27
2019-04-29T13:31:45.688Z,19.80
2019-04-29T13:34:24.037Z,19.40
2019-04-29T13:37:06.213Z,18.37
2019-04-29T13:39:39.494Z,17.83
2019-04-29T13:41:57.493Z,17.27
2019-04-29T13:44:25.047Z,18.40
2019-04-29T13:47:16.479Z,17.53
2019-04-29T13:49:49.540Z,19.13
2019-04-29T13:52:19.125Z,17.27
2019-04-29T13:54:48.561Z,16.50
2019-04-29T13:57:17.811Z,15.83
2019-04-29T14:00:02.246Z,15.60
2019-04-29T14:02:36.977Z,16.40
2019-04-29T14:05:07.272Z,16.10
2019-04-29T14:07:39.230Z,15.73
2019-04-29T14:10:10.211Z,17.30
2019-04-29T14:13:08.986Z,16.47
2019-04-29T14:15:09.342Z,15.53
2019-04-29T14:17:38.734Z,15.27
2019-04-29T14:20:10.812Z,14.70
2019-04-29T14:22:39.006Z,13.23
2019-04-29T14:25:08.145Z,13.70
2019-04-29T14:27:37.277Z,14.13
2019-04-29T14:30:10.892Z,14.30
2019-04-29T14:32:42.325Z,14.10
2019-04-29T14:35:30.068Z,14.37
2019-04-29T14:38:04.250Z,14.33
2019-04-29T14:40:29.977Z,13.77
2019-04-29T14:43:31.351Z,13.23
2019-04-29T14:46:16.001Z,12.47
2019-04-29T14:48:59.564Z,11.47
2019-04-29T14:51:34.106Z,10.60
2019-04-29T14:54:01.388Z,9.90
2019-04-29T14:56:29.854Z,11.33
2019-04-29T14:59:06.554Z,12.80
2019-04-29T15:01:37.095Z,10.73
2019-04-29T15:04:18.571Z,11.77
2019-04-29T15:06:41.726Z,11.30
2019-04-29T15:09:16.748Z,10.30
2019-04-29T15:11:58.637Z,10.93
2019-04-29T15:14:38.897Z,11.80
2019-04-29T15:17:19.433Z,10.60
2019-04-29T15:19:55.931Z,11.33
2019-04-29T15:22:28.310Z,10.10
2019-04-29T15:24:57.461Z,10.37
2019-04-29T15:27:26.584Z,10.20
2019-04-29T15:29:55.772Z,10.90
2019-04-29T15:32:24.924Z,10.30
2019-04-29T15:34:54.102Z,10.23
2019-04-29T15:37:23.262Z,10.70
2019-04-29T15:39:53.668Z,10.33
2019-04-29T15:42:23.079Z,10.80
2019-04-29T15:44:55.904Z,10.17
2019-04-29T15:47:26.794Z,10.17
2019-04-29T15:49:55.906Z,10.17
2019-04-29T15:52:25.894Z,10.33
2019-04-29T15:54:55.680Z,10.63
2019-04-29T15:57:24.921Z,11.10
2019-04-29T15:59:59.447Z,10.73
2019-04-29T16:02:25.280Z,10.40
2019-04-29T16:05:04.684Z,11.00
2019-04-29T16:07:46.821Z,10.00
2019-04-29T16:10:29.856Z,11.63
2019-04-29T16:13:02.211Z,11.97
2019-04-29T16:15:31.364Z,9.57
2019-04-29T16:18:05.177Z,10.83
2019-04-29T16:20:31.513Z,8.70
2019-04-29T16:23:02.118Z,9.00
2019-04-29T16:25:31.567Z,9.00
2019-04-29T16:28:00.685Z,7.97
2019-04-29T16:30:31.788Z,8.03
2019-04-29T16:33:00.809Z,7.30
2019-04-29T16:35:34.753Z,6.77
2019-04-29T16:38:05.642Z,7.37
2019-04-29T16:40:39.127Z,7.97
2019-04-29T16:43:11.193Z,6.90
2019-04-29T16:45:51.630Z,7.20
2019-04-29T16:48:21.324Z,7.20
2019-04-29T16:50:50.448Z,6.80
2019-04-29T16:53:19.631Z,6.93
2019-04-29T16:55:48.737Z,6.50
2019-04-29T16:58:18.581Z,6.60
2019-04-29T17:00:52.794Z,6.80
2019-04-29T17:03:18.760Z,6.43
2019-04-29T17:05:47.872Z,6.43
2019-04-29T17:08:18.869Z,6.10
2019-04-29T17:11:11.959Z,6.17
2019-04-29T17:13:39.627Z,5.20
2019-04-29T17:16:12.601Z,5.53
2019-04-29T17:18:41.735Z,6.33
2019-04-29T17:21:11.501Z,5.30
2019-04-29T17:23:40.686Z,5.60
2019-04-29T17:26:10.858Z,5.50
2019-04-29T17:28:46.477Z,5.60
2019-04-29T17:31:29.058Z,5.20
2019-04-29T17:34:07.356Z,4.80
2019-04-29T17:36:36.752Z,4.77
2019-04-29T17:39:07.380Z,5.03
2019-04-29T17:41:37.176Z,4.77
2019-04-29T17:44:37.899Z,4.87
2019-04-29T17:47:25.119Z,4.90
2019-04-29T17:50:02.226Z,4.57
2019-04-29T17:52:30.228Z,4.27
2019-04-29T17:55:17.699Z,4.20
2019-04-29T17:58:06.084Z,3.93
2019-04-29T18:01:09.808Z,4.13
2019-04-29T18:03:57.332Z,4.53
2019-04-29T18:06:30.446Z,5.40
2019-04-29T18:09:28.202Z,3.97
2019-04-29T18:11:58.325Z,4.17
2019-04-29T18:14:36.631Z,4.00
2019-04-29T18:16:58.544Z,3.67
2019-04-29T18:19:34.841Z,4.27
2019-04-29T18:22:22.380Z,4.13
2019-04-29T18:24:56.835Z,3.40
2019-04-29T18:27:26.834Z,4.53
2019-04-29T18:29:55.996Z,3.50
2019-04-29T18:32:35.308Z,3.90
2019-04-29T18:34:56.056Z,3.80
2019-04-29T18:37:25.174Z,4.00
2019-04-29T18:39:57.774Z,4.30
2019-04-29T18:42:27.189Z,3.90
2019-04-29T18:45:00.243Z,3.60
2019-04-29T18:47:34.667Z,3.47
2019-04-29T18:49:59.427Z,3.90
2019-04-29T18:52:28.627Z,3.80
2019-04-29T18:54:57.833Z,3.43
2019-04-29T18:57:30.582Z,4.30
2019-04-29T18:59:57.804Z,3.57
2019-04-29T19:02:27.540Z,3.80
2019-04-29T19:05:11.728Z,3.80
2019-04-29T19:07:40.827Z,3.63
2019-04-29T19:10:14.220Z,3.57
2019-04-29T19:12:41.057Z,3.40
2019-04-29T19:15:11.923Z,4.03
2019-04-29T19:17:41.268Z,3.50
2019-04-29T19:20:13.117Z,3.57
2019-04-29T19:22:43.997Z,3.40
2019-04-29T19:25:15.427Z,3.57
2019-04-29T19:27:45.473Z,3.40
2019-04-29T19:30:20.750Z,4.00
2019-04-29T19:32:46.873Z,3.33
2019-04-29T19:35:16.971Z,3.40
2019-04-29T19:37:46.411Z,3.03
2019-04-29T19:40:15.496Z,3.50
2019-04-29T19:42:46.858Z,3.47
2019-04-29T19:45:17.481Z,3.40
2019-04-29T19:47:52.070Z,3.40
2019-04-29T19:50:19.495Z,4.07
2019-04-29T19:52:48.455Z,4.10
2019-04-29T19:55:17.562Z,5.40
2019-04-29T19:57:51.815Z,4.20
2019-04-29T20:00:19.141Z,3.50
2019-04-29T20:02:50.373Z,3.60
2019-04-29T20:05:31.503Z,3.70
2019-04-29T20:07:58.785Z,3.83
2019-04-29T20:10:29.499Z,3.73
2019-04-29T20:12:58.277Z,4.17
2019-04-29T20:15:32.451Z,5.40
2019-04-29T20:18:34.477Z,3.63
2019-04-29T20:21:20.824Z,3.90
2019-04-29T20:23:41.309Z,3.90
2019-04-29T20:26:15.470Z,4.10
2019-04-29T20:28:41.520Z,4.20
2019-04-29T20:31:19.191Z,4.10
2019-04-29T20:33:46.690Z,5.50
2019-04-29T20:36:13.001Z,4.10
2019-04-29T20:38:42.216Z,4.20
2019-04-29T20:41:12.955Z,4.40
2019-04-29T20:43:42.341Z,4.63
2019-04-29T20:46:11.844Z,4.10
2019-04-29T20:48:41.276Z,4.43
2019-04-29T20:51:13.725Z,4.70
2019-04-29T20:53:46.242Z,5.33
2019-04-29T20:56:24.090Z,5.07
2019-04-29T20:58:46.945Z,4.63
2019-04-29T21:01:25.514Z,5.80
2019-04-29T21:03:56.564Z,5.03
2019-04-29T21:06:25.513Z,5.30
2019-04-29T21:08:55.151Z,5.00
2019-04-29T21:11:31.499Z,4.73
2019-04-29T21:14:11.904Z,5.20
2019-04-29T21:16:43.808Z,4.97
2019-04-29T21:19:12.917Z,4.97
2019-04-29T21:21:43.700Z,4.60
2019-04-29T21:24:16.792Z,4.33
2019-04-29T21:26:44.902Z,4.87
2019-04-29T21:29:18.096Z,4.70
2019-04-29T21:31:46.066Z,4.20
2019-04-29T21:34:17.456Z,4.73
2019-04-29T21:37:18.264Z,5.47
2019-04-29T21:39:55.691Z,4.70
2019-04-29T21:42:35.290Z,4.80
2019-04-29T21:45:08.361Z,4.73
2019-04-29T21:47:42.701Z,5.13
2019-04-29T21:50:06.756Z,5.50
2019-04-29T21:52:36.728Z,5.03
2019-04-29T21:55:06.782Z,4.83
2019-04-29T21:57:36.427Z,5.00
2019-04-29T22:00:09.645Z,5.60
2019-04-29T22:02:41.410Z,5.27
2019-04-29T22:05:14.832Z,4.50
2019-04-29T22:07:47.267Z,4.93
2019-04-29T22:10:19.916Z,4.67
2019-04-29T22:12:50.941Z,4.37
2019-04-29T22:15:29.741Z,5.23
2019-04-29T22:17:56.415Z,4.87
2019-04-29T22:20:21.661Z,5.27
2019-04-29T22:22:51.333Z,5.80
2019-04-29T22:25:22.271Z,5.03
2019-04-29T22:27:51.920Z,5.70
2019-04-29T22:30:21.824Z,4.87
2019-04-29T22:32:55.199Z,4.37
2019-04-29T22:35:22.867Z,4.67
2019-04-29T22:37:52.482Z,5.10
2019-04-29T22:40:22.138Z,4.23
2019-04-29T22:43:16.771Z,5.00
2019-04-29T22:45:46.548Z,5.03
2019-04-29T22:48:19.605Z,4.40
2019-04-29T22:50:47.666Z,5.30
2019-04-29T22:53:17.276Z,5.03
2019-04-29T22:55:46.995Z,5.37
2019-04-29T22:58:17.576Z,4.90
2019-04-29T23:00:47.192Z,5.17
2019-04-29T23:03:16.867Z,4.90
2019-04-29T23:05:46.520Z,5.30
2019-04-29T23:08:16.172Z,4.97
2019-04-29T23:10:45.768Z,5.00
2019-04-29T23:13:15.442Z,4.97
2019-04-29T23:15:45.543Z,4.90
2019-04-29T23:18:24.664Z,5.20
2019-04-29T23:21:12.340Z,4.63
2019-04-29T23:23:46.277Z,5.07
2019-04-29T23:26:16.869Z,4.93
2019-04-29T23:28:46.723Z,5.60
2019-04-29T23:31:17.663Z,6.27
2019-04-29T23:33:47.278Z,5.67
2019-04-29T23:36:16.912Z,5.20
2019-04-29T23:38:46.527Z,4.90
2019-04-29T23:41:17.109Z,5.73
2019-04-29T23:43:46.751Z,4.27
2019-04-29T23:46:16.229Z,5.20
2019-04-29T23:48:46.765Z,4.97
2019-04-29T23:51:16.151Z,4.97
2019-04-29T23:53:45.354Z,5.13
2019-04-29T23:56:15.336Z,5.00
2019-04-29T23:58:50.428Z,5.10
